createdAt,value
2023-01-20T00:00:08.123Z,934.65
2023-01-20T00:01:08.140Z,934.65
2023-01-20T00:02:08.147Z,934.67
2023-01-20T00:03:08.166Z,934.69
2023-01-20T00:04:08.189Z,934.68
2023-01-20T00:05:08.229Z,934.71
2023-01-20T00:06:08.215Z,934.72
2023-01-20T00:07:08.237Z,934.74
2023-01-20T00:08:08.254Z,934.76
2023-01-20T00:09:08.288Z,934.76
2023-01-20T00:10:08.287Z,934.71
2023-01-20T00:11:08.298Z,934.72
2023-01-20T00:12:08.323Z,934.74
2023-01-20T00:13:08.336Z,934.69
2023-01-20T00:14:08.352Z,934.70
2023-01-20T00:15:08.370Z,934.69
2023-01-20T00:16:08.583Z,934.74
2023-01-20T00:17:08.397Z,934.74
2023-01-20T00:18:08.419Z,934.73
2023-01-20T00:19:08.437Z,934.75
2023-01-20T00:20:08.453Z,934.76
2023-01-20T00:21:08.480Z,934.76
2023-01-20T00:22:08.479Z,934.85
2023-01-20T00:23:08.501Z,934.86
2023-01-20T00:24:08.510Z,934.88
2023-01-20T00:25:08.535Z,934.91
2023-01-20T00:26:08.554Z,934.92
2023-01-20T00:27:08.564Z,934.98
2023-01-20T00:28:08.584Z,934.96
2023-01-20T00:29:08.600Z,935.03
2023-01-20T00:30:08.611Z,935.04
2023-01-20T00:31:08.652Z,935.03
2023-01-20T00:32:08.651Z,935.05
2023-01-20T00:33:08.660Z,935.04
2023-01-20T00:34:08.684Z,935.04
2023-01-20T00:35:08.704Z,935.01
2023-01-20T00:36:08.716Z,934.99
2023-01-20T00:37:08.752Z,934.99
2023-01-20T00:38:08.741Z,934.97
2023-01-20T00:39:08.770Z,935.02
2023-01-20T00:40:08.790Z,935.01
2023-01-20T00:41:08.802Z,935.02
2023-01-20T00:42:08.818Z,935.00
2023-01-20T00:43:08.824Z,935.06
2023-01-20T00:44:08.849Z,935.06
2023-01-20T00:45:08.867Z,935.07
2023-01-20T00:46:08.964Z,935.11
2023-01-20T00:47:08.890Z,935.15
2023-01-20T00:48:08.914Z,935.16
2023-01-20T00:49:08.924Z,935.20
2023-01-20T00:50:08.946Z,935.20
2023-01-20T00:51:08.955Z,935.25
2023-01-20T00:52:08.973Z,935.27
2023-01-20T00:53:09.010Z,935.29
2023-01-20T00:54:09.006Z,935.31
2023-01-20T00:55:09.032Z,935.31
2023-01-20T00:56:09.046Z,935.30
2023-01-20T00:57:09.055Z,935.31
2023-01-20T00:58:09.080Z,935.32
2023-01-20T00:59:09.095Z,935.36
2023-01-20T01:00:09.120Z,935.39
2023-01-20T01:01:09.314Z,935.39
2023-01-20T01:02:09.285Z,935.40
2023-01-20T01:03:09.163Z,935.41
2023-01-20T01:04:09.179Z,935.44
2023-01-20T01:05:09.206Z,935.40
2023-01-20T01:06:09.219Z,935.42
2023-01-20T01:07:09.228Z,935.41
2023-01-20T01:08:09.239Z,935.42
2023-01-20T01:09:09.278Z,935.37
2023-01-20T01:10:09.281Z,935.44
2023-01-20T01:11:09.288Z,935.42
2023-01-20T01:12:09.310Z,935.44
2023-01-20T01:13:09.334Z,935.44
2023-01-20T01:14:09.336Z,935.41
2023-01-20T01:15:09.353Z,935.42
2023-01-20T01:16:09.466Z,935.38
2023-01-20T01:17:09.383Z,935.39
2023-01-20T01:18:09.413Z,935.40
2023-01-20T01:19:09.426Z,935.38
2023-01-20T01:20:09.437Z,935.35
2023-01-20T01:21:09.476Z,935.37
2023-01-20T01:22:09.483Z,935.41
2023-01-20T01:23:09.492Z,935.45
2023-01-20T01:24:09.500Z,935.38
2023-01-20T01:25:09.564Z,935.40
2023-01-20T01:26:09.534Z,935.39
2023-01-20T01:27:09.554Z,935.39
2023-01-20T01:28:09.578Z,935.37
2023-01-20T01:29:09.582Z,935.39
2023-01-20T01:30:09.608Z,935.36
2023-01-20T01:31:09.691Z,935.33
2023-01-20T01:32:09.639Z,935.30
2023-01-20T01:33:09.656Z,935.30
2023-01-20T01:34:09.671Z,935.25
2023-01-20T01:35:09.680Z,935.22
2023-01-20T01:36:09.712Z,935.21
2023-01-20T01:37:09.725Z,935.18
2023-01-20T01:38:09.744Z,935.17
2023-01-20T01:39:09.757Z,935.17
2023-01-20T01:40:09.773Z,935.17
2023-01-20T01:41:09.806Z,935.15
2023-01-20T01:42:09.810Z,935.14
2023-01-20T01:43:09.821Z,935.12
2023-01-20T01:44:09.848Z,935.11
2023-01-20T01:45:09.861Z,935.08
2023-01-20T01:46:09.869Z,935.09
2023-01-20T01:47:09.880Z,935.04
2023-01-20T01:48:09.905Z,934.99
2023-01-20T01:49:09.922Z,934.95
2023-01-20T01:50:09.930Z,934.94
2023-01-20T01:51:09.949Z,934.89
2023-01-20T01:52:09.960Z,934.86
2023-01-20T01:53:09.983Z,934.82
2023-01-20T01:54:10.005Z,934.83
2023-01-20T01:55:10.025Z,934.82
2023-01-20T01:56:10.034Z,934.84
2023-01-20T01:57:10.271Z,934.87
2023-01-20T01:58:10.060Z,934.85
2023-01-20T01:59:10.077Z,934.91
2023-01-20T02:00:10.115Z,934.84
2023-01-20T02:01:10.254Z,934.86
2023-01-20T02:02:10.188Z,934.86
2023-01-20T02:03:10.154Z,934.84
2023-01-20T02:04:10.157Z,934.83
2023-01-20T02:05:10.185Z,934.82
2023-01-20T02:06:10.202Z,934.80
2023-01-20T02:07:10.215Z,934.83
2023-01-20T02:08:10.230Z,934.78
2023-01-20T02:09:10.247Z,934.80
2023-01-20T02:10:10.264Z,934.85
2023-01-20T02:11:10.281Z,934.79
2023-01-20T02:12:10.297Z,934.75
2023-01-20T02:13:10.334Z,934.75
2023-01-20T02:14:10.333Z,934.72
2023-01-20T02:15:10.340Z,934.72
2023-01-20T02:16:10.375Z,934.68
2023-01-20T02:17:10.369Z,934.65
2023-01-20T02:18:10.398Z,934.62
2023-01-20T02:19:10.411Z,934.60
2023-01-20T02:20:10.420Z,934.56
2023-01-20T02:21:10.477Z,934.55
2023-01-20T02:22:10.460Z,934.50
2023-01-20T02:23:10.470Z,934.41
2023-01-20T02:24:10.493Z,934.42
2023-01-20T02:25:10.518Z,934.38
2023-01-20T02:26:10.537Z,934.39
2023-01-20T02:27:10.552Z,934.35
2023-01-20T02:28:10.562Z,934.32
2023-01-20T02:29:10.586Z,934.31
2023-01-20T02:30:10.610Z,934.31
2023-01-20T02:31:10.602Z,934.32
2023-01-20T02:32:10.618Z,934.34
2023-01-20T02:33:10.643Z,934.33
2023-01-20T02:34:10.681Z,934.34
2023-01-20T02:35:10.670Z,934.34
2023-01-20T02:36:10.689Z,934.33
2023-01-20T02:37:10.706Z,934.34
2023-01-20T02:38:10.721Z,934.33
2023-01-20T02:39:10.738Z,934.32
2023-01-20T02:40:10.754Z,934.31
2023-01-20T02:41:10.769Z,934.34
2023-01-20T02:42:10.789Z,934.32
2023-01-20T02:43:10.798Z,934.31
2023-01-20T02:44:10.819Z,934.30
2023-01-20T02:45:10.861Z,934.27
2023-01-20T02:46:10.856Z,934.29
2023-01-20T02:47:10.863Z,934.27
2023-01-20T02:48:10.896Z,934.21
2023-01-20T02:49:10.933Z,934.18
2023-01-20T02:50:10.928Z,934.16
2023-01-20T02:51:10.938Z,934.15
2023-01-20T02:52:10.988Z,934.12
2023-01-20T02:53:10.964Z,934.17
2023-01-20T02:54:10.982Z,934.13
2023-01-20T02:55:11.041Z,934.09
2023-01-20T02:56:11.015Z,934.10
2023-01-20T02:57:11.023Z,934.09
2023-01-20T02:58:11.053Z,934.07
2023-01-20T02:59:11.074Z,934.08
2023-01-20T03:00:11.078Z,934.07
2023-01-20T03:01:11.297Z,934.07
2023-01-20T03:02:11.138Z,934.07
2023-01-20T03:03:11.145Z,934.08
2023-01-20T03:04:11.229Z,934.05
2023-01-20T03:05:11.164Z,934.05
2023-01-20T03:06:11.179Z,934.03
2023-01-20T03:07:11.189Z,934.03
2023-01-20T03:08:11.208Z,934.04
2023-01-20T03:09:11.221Z,934.00
2023-01-20T03:10:11.237Z,934.01
2023-01-20T03:11:11.255Z,933.94
2023-01-20T03:12:11.278Z,933.89
2023-01-20T03:13:11.286Z,933.92
2023-01-20T03:14:11.310Z,933.88
2023-01-20T03:15:11.378Z,933.90
2023-01-20T03:16:11.401Z,933.85
2023-01-20T03:17:11.388Z,933.84
2023-01-20T03:18:11.372Z,933.85
2023-01-20T03:19:11.383Z,933.86
2023-01-20T03:20:11.417Z,933.82
2023-01-20T03:21:11.415Z,933.82
2023-01-20T03:22:11.452Z,933.80
2023-01-20T03:23:11.519Z,933.78
2023-01-20T03:24:11.466Z,933.83
2023-01-20T03:25:11.518Z,933.83
2023-01-20T03:26:11.529Z,933.83
2023-01-20T03:27:11.530Z,933.82
2023-01-20T03:28:11.539Z,933.81
2023-01-20T03:29:11.665Z,933.76
2023-01-20T03:30:11.569Z,933.74
2023-01-20T03:31:11.719Z,933.73
2023-01-20T03:32:11.602Z,933.70
2023-01-20T03:33:11.638Z,933.74
2023-01-20T03:34:11.629Z,933.72
2023-01-20T03:35:11.654Z,933.71
2023-01-20T03:36:11.662Z,933.72
2023-01-20T03:37:11.708Z,933.72
2023-01-20T03:38:11.701Z,933.73
2023-01-20T03:39:11.724Z,933.75
2023-01-20T03:40:11.731Z,933.73
2023-01-20T03:41:11.740Z,933.77
2023-01-20T03:42:11.758Z,933.75
2023-01-20T03:43:11.777Z,933.77
2023-01-20T03:44:11.800Z,933.77
2023-01-20T03:45:11.833Z,933.75
2023-01-20T03:46:11.884Z,933.73
2023-01-20T03:47:11.848Z,933.69
2023-01-20T03:48:11.857Z,933.67
2023-01-20T03:49:11.892Z,933.64
2023-01-20T03:50:11.896Z,933.61
2023-01-20T03:51:11.911Z,933.58
2023-01-20T03:52:11.921Z,933.56
2023-01-20T03:53:11.945Z,933.54
2023-01-20T03:54:11.963Z,933.56
2023-01-20T03:55:12.526Z,933.55
2023-01-20T03:56:12.001Z,933.54
2023-01-20T03:57:12.014Z,933.53
2023-01-20T03:58:12.032Z,933.53
2023-01-20T03:59:12.043Z,933.53
2023-01-20T04:00:12.052Z,933.52
2023-01-20T04:01:18.086Z,933.52
2023-01-20T04:02:12.286Z,933.50
2023-01-20T04:03:12.128Z,933.51
2023-01-20T04:04:12.125Z,933.47
2023-01-20T04:05:12.414Z,933.46
2023-01-20T04:06:12.160Z,933.44
2023-01-20T04:07:12.173Z,933.42
2023-01-20T04:08:12.200Z,933.44
2023-01-20T04:09:12.199Z,933.41
2023-01-20T04:10:12.242Z,933.42
2023-01-20T04:11:12.237Z,933.43
2023-01-20T04:12:12.255Z,933.41
2023-01-20T04:13:12.275Z,933.36
2023-01-20T04:14:12.285Z,933.33
2023-01-20T04:15:12.355Z,933.32
2023-01-20T04:16:12.427Z,933.33
2023-01-20T04:17:12.338Z,933.31
2023-01-20T04:18:12.343Z,933.26
2023-01-20T04:19:12.360Z,933.27
2023-01-20T04:20:12.403Z,933.27
2023-01-20T04:21:12.417Z,933.23
2023-01-20T04:22:12.418Z,933.26
2023-01-20T04:23:12.433Z,933.26
2023-01-20T04:24:12.443Z,933.25
2023-01-20T04:25:12.934Z,933.27
2023-01-20T04:26:12.478Z,933.25
2023-01-20T04:27:12.491Z,933.23
2023-01-20T04:28:12.524Z,933.28
2023-01-20T04:29:13.290Z,933.21
2023-01-20T04:30:12.541Z,933.19
2023-01-20T04:31:25.009Z,933.18
2023-01-20T04:32:12.577Z,933.13
2023-01-20T04:33:12.588Z,933.10
2023-01-20T04:34:12.610Z,933.07
2023-01-20T04:35:13.058Z,933.05
2023-01-20T04:36:12.644Z,933.03
2023-01-20T04:37:12.875Z,933.02
2023-01-20T04:38:12.669Z,932.96
2023-01-20T04:39:12.689Z,932.94
2023-01-20T04:40:12.707Z,932.92
2023-01-20T04:41:12.718Z,932.89
2023-01-20T04:42:12.747Z,932.86
2023-01-20T04:43:12.751Z,932.86
2023-01-20T04:44:12.779Z,932.85
2023-01-20T04:45:13.151Z,932.88
2023-01-20T04:46:12.869Z,932.82
2023-01-20T04:47:12.817Z,932.80
2023-01-20T04:48:12.837Z,932.83
2023-01-20T04:49:12.852Z,932.81
2023-01-20T04:50:12.867Z,932.79
2023-01-20T04:51:12.898Z,932.80
2023-01-20T04:52:12.895Z,932.77
2023-01-20T04:53:12.930Z,932.75
2023-01-20T04:54:12.931Z,932.73
2023-01-20T04:55:13.248Z,932.68
2023-01-20T04:56:13.004Z,932.73
2023-01-20T04:57:12.976Z,932.67
2023-01-20T04:58:13.005Z,932.70
2023-01-20T04:59:13.015Z,932.69
2023-01-20T05:00:13.028Z,932.71
2023-01-20T05:01:13.179Z,932.64
2023-01-20T05:02:13.239Z,932.64
2023-01-20T05:03:13.073Z,932.66
2023-01-20T05:04:13.099Z,932.62
2023-01-20T05:05:13.435Z,932.60
2023-01-20T05:06:13.129Z,932.56
2023-01-20T05:07:13.146Z,932.55
2023-01-20T05:08:13.153Z,932.54
2023-01-20T05:09:13.197Z,932.53
2023-01-20T05:10:13.438Z,932.50
2023-01-20T05:11:13.211Z,932.50
2023-01-20T05:12:13.221Z,932.44
2023-01-20T05:13:13.242Z,932.44
2023-01-20T05:14:13.259Z,932.45
2023-01-20T05:15:13.672Z,932.43
2023-01-20T05:16:13.313Z,932.41
2023-01-20T05:17:13.326Z,932.41
2023-01-20T05:18:13.328Z,932.42
2023-01-20T05:19:13.343Z,932.43
2023-01-20T05:20:13.357Z,932.39
2023-01-20T05:21:13.363Z,932.43
2023-01-20T05:22:13.407Z,932.43
2023-01-20T05:23:13.395Z,932.43
2023-01-20T05:24:13.424Z,932.42
2023-01-20T05:25:13.737Z,932.42
2023-01-20T05:26:13.451Z,932.35
2023-01-20T05:27:13.469Z,932.37
2023-01-20T05:28:13.476Z,932.39
2023-01-20T05:29:13.498Z,932.37
2023-01-20T05:30:13.515Z,932.38
2023-01-20T05:31:13.656Z,932.37
2023-01-20T05:32:13.556Z,932.42
2023-01-20T05:33:13.557Z,932.43
2023-01-20T05:34:13.576Z,932.41
2023-01-20T05:35:14.023Z,932.44
2023-01-20T05:36:13.606Z,932.41
2023-01-20T05:37:13.625Z,932.39
2023-01-20T05:38:13.643Z,932.38
2023-01-20T05:39:13.652Z,932.38
2023-01-20T05:40:13.681Z,932.38
2023-01-20T05:41:13.712Z,932.39
2023-01-20T05:42:13.703Z,932.35
2023-01-20T05:43:13.724Z,932.36
2023-01-20T05:44:13.737Z,932.34
2023-01-20T05:45:14.175Z,932.26
2023-01-20T05:46:13.862Z,932.30
2023-01-20T05:47:13.795Z,932.29
2023-01-20T05:48:13.813Z,932.28
2023-01-20T05:49:13.826Z,932.27
2023-01-20T05:50:13.837Z,932.27
2023-01-20T05:51:13.846Z,932.27
2023-01-20T05:52:13.874Z,932.26
2023-01-20T05:53:13.907Z,932.26
2023-01-20T05:54:13.905Z,932.24
2023-01-20T05:55:14.246Z,932.26
2023-01-20T05:56:13.933Z,932.26
2023-01-20T05:57:13.976Z,932.26
2023-01-20T05:58:13.961Z,932.20
2023-01-20T05:59:13.981Z,932.22
2023-01-20T06:00:14.010Z,932.16
2023-01-20T06:01:14.114Z,932.17
2023-01-20T06:02:14.031Z,932.13
2023-01-20T06:03:14.040Z,932.10
2023-01-20T06:04:14.055Z,932.10
2023-01-20T06:05:14.514Z,932.13
2023-01-20T06:06:14.102Z,932.12
2023-01-20T06:07:14.105Z,932.14
2023-01-20T06:08:14.126Z,932.13
2023-01-20T06:09:14.140Z,932.13
2023-01-20T06:10:14.150Z,932.19
2023-01-20T06:11:14.177Z,932.15
2023-01-20T06:12:14.184Z,932.09
2023-01-20T06:13:14.224Z,932.08
2023-01-20T06:14:14.215Z,932.07
2023-01-20T06:15:14.622Z,932.09
2023-01-20T06:16:14.352Z,932.09
2023-01-20T06:17:14.271Z,932.09
2023-01-20T06:18:14.281Z,932.09
2023-01-20T06:19:14.303Z,932.07
2023-01-20T06:20:14.329Z,932.07
2023-01-20T06:21:14.327Z,932.06
2023-01-20T06:22:14.354Z,932.09
2023-01-20T06:23:14.369Z,932.11
2023-01-20T06:24:14.388Z,932.10
2023-01-20T06:25:14.866Z,932.10
2023-01-20T06:26:14.410Z,932.09
2023-01-20T06:27:14.424Z,932.07
2023-01-20T06:28:14.442Z,932.06
2023-01-20T06:29:14.475Z,932.03
2023-01-20T06:30:14.479Z,932.05
2023-01-20T06:31:14.612Z,932.06
2023-01-20T06:32:14.509Z,932.07
2023-01-20T06:33:14.528Z,932.03
2023-01-20T06:34:14.536Z,932.05
2023-01-20T06:35:14.805Z,932.02
2023-01-20T06:36:14.578Z,932.01
2023-01-20T06:37:14.583Z,932.03
2023-01-20T06:38:14.607Z,932.00
2023-01-20T06:39:14.627Z,931.99
2023-01-20T06:40:14.640Z,932.00
2023-01-20T06:41:14.657Z,931.98
2023-01-20T06:42:14.679Z,931.97
2023-01-20T06:43:14.681Z,931.96
2023-01-20T06:44:14.702Z,931.94
2023-01-20T06:45:15.079Z,931.95
2023-01-20T06:46:14.750Z,931.96
2023-01-20T06:47:14.759Z,931.91
2023-01-20T06:48:14.764Z,931.89
2023-01-20T06:49:14.781Z,931.95
2023-01-20T06:50:14.812Z,931.94
2023-01-20T06:51:14.810Z,931.95
2023-01-20T06:52:14.833Z,931.97
2023-01-20T06:53:14.849Z,931.92
2023-01-20T06:54:14.858Z,931.94
2023-01-20T06:55:15.021Z,931.92
2023-01-20T06:56:14.924Z,931.95
2023-01-20T06:57:14.904Z,931.92
2023-01-20T06:58:14.921Z,931.90
2023-01-20T06:59:14.943Z,931.92
2023-01-20T07:00:14.952Z,931.93
2023-01-20T07:01:15.200Z,931.91
2023-01-20T07:02:15.112Z,931.92
2023-01-20T07:03:15.001Z,931.93
2023-01-20T07:04:15.016Z,931.92
2023-01-20T07:05:15.367Z,931.91
2023-01-20T07:06:15.055Z,931.89
2023-01-20T07:07:15.065Z,931.89
2023-01-20T07:08:15.108Z,931.88
2023-01-20T07:09:15.097Z,931.87
2023-01-20T07:10:15.120Z,931.88
2023-01-20T07:11:15.137Z,931.88
2023-01-20T07:12:15.146Z,931.89
2023-01-20T07:13:15.168Z,931.83
2023-01-20T07:14:15.183Z,931.88
2023-01-20T07:15:15.599Z,931.85
2023-01-20T07:16:16.020Z,931.86
2023-01-20T07:17:15.259Z,931.87
2023-01-20T07:18:15.248Z,931.88
2023-01-20T07:19:15.257Z,931.89
2023-01-20T07:20:15.273Z,931.88
2023-01-20T07:21:15.291Z,931.88
2023-01-20T07:22:15.315Z,931.90
2023-01-20T07:23:15.332Z,931.90
2023-01-20T07:24:15.336Z,931.88
2023-01-20T07:25:15.755Z,931.89
2023-01-20T07:26:15.377Z,931.90
2023-01-20T07:27:15.393Z,931.93
2023-01-20T07:28:15.407Z,931.89
2023-01-20T07:29:17.754Z,931.92
2023-01-20T07:30:15.440Z,931.87
2023-01-20T07:31:15.488Z,931.86
2023-01-20T07:32:15.484Z,931.87
2023-01-20T07:33:15.501Z,931.88
2023-01-20T07:34:15.496Z,931.89
2023-01-20T07:35:15.861Z,931.88
2023-01-20T07:36:15.545Z,931.88
2023-01-20T07:37:15.552Z,931.88
2023-01-20T07:38:15.564Z,931.87
2023-01-20T07:39:15.583Z,931.88
2023-01-20T07:40:15.611Z,931.90
2023-01-20T07:41:15.637Z,931.89
2023-01-20T07:42:15.630Z,931.89
2023-01-20T07:43:15.647Z,931.85
2023-01-20T07:44:15.661Z,931.84
2023-01-20T07:45:15.899Z,931.88
2023-01-20T07:46:15.690Z,931.82
2023-01-20T07:47:15.716Z,931.84
2023-01-20T07:48:15.726Z,931.82
2023-01-20T07:49:15.760Z,931.79
2023-01-20T07:50:15.759Z,931.80
2023-01-20T07:51:15.772Z,931.78
2023-01-20T07:52:15.783Z,931.77
2023-01-20T07:53:15.814Z,931.79
2023-01-20T07:54:15.820Z,931.82
2023-01-20T07:55:16.193Z,931.81
2023-01-20T07:56:15.853Z,931.84
2023-01-20T07:57:15.871Z,931.85
2023-01-20T07:58:15.886Z,931.91
2023-01-20T07:59:15.894Z,931.91
2023-01-20T08:00:15.931Z,931.93
2023-01-20T08:01:16.087Z,931.92
2023-01-20T08:02:15.951Z,931.92
2023-01-20T08:03:15.964Z,931.91
2023-01-20T08:04:15.972Z,931.92
2023-01-20T08:05:16.531Z,931.94
2023-01-20T08:06:16.018Z,931.93
2023-01-20T08:07:16.021Z,931.94
2023-01-20T08:08:16.045Z,931.92
2023-01-20T08:09:16.052Z,931.92
2023-01-20T08:10:16.087Z,931.93
2023-01-20T08:11:16.097Z,931.97
2023-01-20T08:12:16.103Z,931.96
2023-01-20T08:13:16.115Z,931.94
2023-01-20T08:14:16.163Z,931.97
2023-01-20T08:15:16.685Z,931.97
2023-01-20T08:16:16.219Z,931.99
2023-01-20T08:17:16.185Z,932.02
2023-01-20T08:18:16.203Z,931.97
2023-01-20T08:19:16.213Z,931.99
2023-01-20T08:20:18.155Z,931.99
2023-01-20T08:21:16.261Z,932.01
2023-01-20T08:22:16.260Z,932.01
2023-01-20T08:23:16.273Z,932.01
2023-01-20T08:24:16.297Z,932.02
2023-01-20T08:25:16.732Z,932.04
2023-01-20T08:26:16.332Z,932.08
2023-01-20T08:27:16.340Z,932.13
2023-01-20T08:28:16.717Z,932.18
2023-01-20T08:29:16.382Z,932.20
2023-01-20T08:30:16.397Z,932.20
2023-01-20T08:31:16.572Z,932.22
2023-01-20T08:32:16.426Z,932.24
2023-01-20T08:33:16.456Z,932.25
2023-01-20T08:34:16.451Z,932.20
2023-01-20T08:35:16.790Z,932.27
2023-01-20T08:36:16.488Z,932.30
2023-01-20T08:37:16.516Z,932.33
2023-01-20T08:38:16.522Z,932.32
2023-01-20T08:39:16.537Z,932.37
2023-01-20T08:40:16.548Z,932.35
2023-01-20T08:41:16.566Z,932.39
2023-01-20T08:42:16.582Z,932.38
2023-01-20T08:43:16.593Z,932.38
2023-01-20T08:44:16.610Z,932.41
2023-01-20T08:45:16.914Z,932.45
2023-01-20T08:46:16.730Z,932.45
2023-01-20T08:47:16.664Z,932.48
2023-01-20T08:48:16.680Z,932.48
2023-01-20T08:49:16.694Z,932.51
2023-01-20T08:50:16.706Z,932.51
2023-01-20T08:51:16.753Z,932.53
2023-01-20T08:52:16.744Z,932.54
2023-01-20T08:53:16.777Z,932.55
2023-01-20T08:54:16.783Z,932.60
2023-01-20T08:55:17.210Z,932.57
2023-01-20T08:56:16.810Z,932.60
2023-01-20T08:57:16.813Z,932.62
2023-01-20T08:58:16.831Z,932.59
2023-01-20T08:59:16.847Z,932.61
2023-01-20T09:00:16.873Z,932.63
2023-01-20T09:01:16.944Z,932.63
2023-01-20T09:02:16.923Z,932.64
2023-01-20T09:03:16.911Z,932.62
2023-01-20T09:04:16.927Z,932.60
2023-01-20T09:05:17.197Z,932.63
2023-01-20T09:06:16.959Z,932.60
2023-01-20T09:07:16.995Z,932.60
2023-01-20T09:08:16.996Z,932.57
2023-01-20T09:09:17.032Z,932.52
2023-01-20T09:10:17.029Z,932.59
2023-01-20T09:11:17.091Z,932.57
2023-01-20T09:12:17.067Z,932.55
2023-01-20T09:13:17.079Z,932.56
2023-01-20T09:14:17.088Z,932.57
2023-01-20T09:15:17.181Z,932.57
2023-01-20T09:16:17.243Z,932.57
2023-01-20T09:17:17.137Z,932.60
2023-01-20T09:18:17.149Z,932.55
2023-01-20T09:19:17.174Z,932.58
2023-01-20T09:20:17.189Z,932.53
2023-01-20T09:21:17.205Z,932.56
2023-01-20T09:22:17.216Z,932.58
2023-01-20T09:23:17.237Z,932.56
2023-01-20T09:24:17.241Z,932.59
2023-01-20T09:25:17.618Z,932.54
2023-01-20T09:26:33.465Z,932.59
2023-01-20T09:27:17.294Z,932.53
2023-01-20T09:28:17.314Z,932.54
2023-01-20T09:29:17.336Z,932.59
2023-01-20T09:30:17.342Z,932.58
2023-01-20T09:31:17.410Z,932.63
2023-01-20T09:32:17.373Z,932.65
2023-01-20T09:33:17.389Z,932.66
2023-01-20T09:34:17.411Z,932.63
2023-01-20T09:35:17.927Z,932.64
2023-01-20T09:36:17.443Z,932.66
2023-01-20T09:37:17.455Z,932.65
2023-01-20T09:38:17.465Z,932.68
2023-01-20T09:39:17.485Z,932.63
2023-01-20T09:40:17.602Z,932.66
2023-01-20T09:41:17.582Z,932.66
2023-01-20T09:42:17.528Z,932.66
2023-01-20T09:43:17.572Z,932.70
2023-01-20T09:44:17.565Z,932.66
2023-01-20T09:45:17.572Z,932.68
2023-01-20T09:46:17.635Z,932.72
2023-01-20T09:47:17.612Z,932.71
2023-01-20T09:48:17.628Z,932.74
2023-01-20T09:49:17.645Z,932.74
2023-01-20T09:50:17.860Z,932.77
2023-01-20T09:51:17.672Z,932.75
2023-01-20T09:52:17.684Z,932.83
2023-01-20T09:53:17.706Z,932.82
2023-01-20T09:54:17.715Z,932.87
2023-01-20T09:55:17.732Z,932.89
2023-01-20T09:56:17.793Z,932.88
2023-01-20T09:57:17.783Z,932.92
2023-01-20T09:58:17.787Z,932.96
2023-01-20T09:59:17.795Z,932.97
2023-01-20T10:00:17.823Z,932.95
2023-01-20T10:01:17.863Z,933.02
2023-01-20T10:02:17.849Z,932.96
2023-01-20T10:03:17.887Z,932.99
2023-01-20T10:04:17.872Z,932.99
2023-01-20T10:05:17.922Z,933.02
2023-01-20T10:06:18.059Z,933.01
2023-01-20T10:07:17.925Z,932.99
2023-01-20T10:08:17.948Z,932.99
2023-01-20T10:09:17.958Z,933.04
2023-01-20T10:10:18.040Z,933.02
2023-01-20T10:11:18.026Z,932.97
2023-01-20T10:12:18.013Z,932.95
2023-01-20T10:13:18.101Z,932.92
2023-01-20T10:14:18.040Z,932.96
2023-01-20T10:15:18.048Z,932.97
2023-01-20T10:16:18.204Z,932.97
2023-01-20T10:17:18.079Z,933.00
2023-01-20T10:18:18.101Z,933.02
2023-01-20T10:19:18.723Z,932.99
2023-01-20T10:20:18.133Z,933.04
2023-01-20T10:21:18.149Z,933.01
2023-01-20T10:22:18.165Z,933.02
2023-01-20T10:23:18.181Z,933.03
2023-01-20T10:24:18.195Z,933.03
2023-01-20T10:25:18.205Z,933.03
2023-01-20T10:26:18.229Z,933.05
2023-01-20T10:27:18.236Z,933.06
2023-01-20T10:28:18.263Z,933.08
2023-01-20T10:29:18.312Z,933.05
2023-01-20T10:30:18.412Z,933.09
2023-01-20T10:31:18.415Z,933.11
2023-01-20T10:32:18.324Z,933.08
2023-01-20T10:33:18.330Z,933.10
2023-01-20T10:34:18.355Z,933.09
2023-01-20T10:35:18.609Z,933.09
2023-01-20T10:36:18.386Z,933.08
2023-01-20T10:37:18.400Z,933.10
2023-01-20T10:38:18.417Z,933.11
2023-01-20T10:39:18.432Z,933.10
2023-01-20T10:40:18.504Z,933.11
2023-01-20T10:41:19.691Z,933.07
2023-01-20T10:42:18.489Z,933.11
2023-01-20T10:43:18.489Z,933.04
2023-01-20T10:44:18.504Z,933.05
2023-01-20T10:45:18.593Z,933.02
2023-01-20T10:46:18.598Z,933.05
2023-01-20T10:47:18.552Z,933.06
2023-01-20T10:48:18.577Z,933.03
2023-01-20T10:49:18.594Z,933.04
2023-01-20T10:50:18.665Z,933.05
2023-01-20T10:51:18.615Z,933.04
2023-01-20T10:52:18.630Z,933.05
2023-01-20T10:53:18.653Z,933.03
2023-01-20T10:54:18.670Z,933.04
2023-01-20T10:55:18.685Z,933.05
2023-01-20T10:56:18.697Z,933.02
2023-01-20T10:57:18.727Z,933.00
2023-01-20T10:58:18.724Z,933.05
2023-01-20T10:59:18.744Z,933.01
2023-01-20T11:00:18.767Z,933.06
2023-01-20T11:01:18.948Z,933.01
2023-01-20T11:02:18.848Z,933.01
2023-01-20T11:03:18.902Z,933.05
2023-01-20T11:04:18.830Z,933.05
2023-01-20T11:05:18.857Z,933.08
2023-01-20T11:06:18.862Z,933.08
2023-01-20T11:07:18.867Z,933.08
2023-01-20T11:08:18.883Z,933.07
2023-01-20T11:09:18.899Z,933.09
2023-01-20T11:10:18.954Z,933.10
2023-01-20T11:11:18.939Z,933.08
2023-01-20T11:12:18.948Z,933.08
2023-01-20T11:13:18.993Z,933.07
2023-01-20T11:14:18.980Z,933.06
2023-01-20T11:15:19.003Z,933.07
2023-01-20T11:16:19.095Z,933.08
2023-01-20T11:17:19.092Z,933.06
2023-01-20T11:18:19.041Z,933.06
2023-01-20T11:19:19.070Z,933.12
2023-01-20T11:20:19.083Z,933.10
2023-01-20T11:21:19.097Z,933.09
2023-01-20T11:22:19.104Z,933.12
2023-01-20T11:23:19.127Z,933.11
2023-01-20T11:24:19.137Z,933.12
2023-01-20T11:25:19.157Z,933.10
2023-01-20T11:26:19.179Z,933.10
2023-01-20T11:27:19.187Z,933.06
2023-01-20T11:28:19.224Z,933.07
2023-01-20T11:29:19.225Z,933.10
2023-01-20T11:30:19.237Z,933.11
2023-01-20T11:31:19.384Z,933.08
2023-01-20T11:32:19.268Z,933.09
2023-01-20T11:33:19.345Z,933.12
2023-01-20T11:34:19.298Z,933.16
2023-01-20T11:35:19.309Z,933.13
2023-01-20T11:36:19.337Z,933.19
2023-01-20T11:37:19.348Z,933.20
2023-01-20T11:38:19.356Z,933.20
2023-01-20T11:39:19.383Z,933.23
2023-01-20T11:40:19.401Z,933.26
2023-01-20T11:41:19.413Z,933.27
2023-01-20T11:42:19.419Z,933.28
2023-01-20T11:43:19.440Z,933.27
2023-01-20T11:44:19.454Z,933.29
2023-01-20T11:45:21.529Z,933.32
2023-01-20T11:46:19.543Z,933.32
2023-01-20T11:47:19.512Z,933.30
2023-01-20T11:48:19.524Z,933.30
2023-01-20T11:49:19.578Z,933.32
2023-01-20T11:50:19.545Z,933.30
2023-01-20T11:51:19.574Z,933.35
2023-01-20T11:52:19.588Z,933.31
2023-01-20T11:53:19.607Z,933.32
2023-01-20T11:54:19.643Z,933.35
2023-01-20T11:55:19.632Z,933.38
2023-01-20T11:56:19.652Z,933.39
2023-01-20T11:57:19.653Z,933.42
2023-01-20T11:58:19.697Z,933.40
2023-01-20T11:59:19.695Z,933.41
2023-01-20T12:00:19.711Z,933.41
2023-01-20T12:01:19.716Z,933.41
2023-01-20T12:02:19.768Z,933.39
2023-01-20T12:03:19.756Z,933.40
2023-01-20T12:04:19.906Z,933.43
2023-01-20T12:05:19.800Z,933.41
2023-01-20T12:06:19.798Z,933.41
2023-01-20T12:07:19.826Z,933.42
2023-01-20T12:08:19.835Z,933.43
2023-01-20T12:09:19.853Z,933.42
2023-01-20T12:10:19.867Z,933.45
2023-01-20T12:11:19.876Z,933.44
2023-01-20T12:12:19.891Z,933.44
2023-01-20T12:13:19.908Z,933.48
2023-01-20T12:14:19.930Z,933.48
2023-01-20T12:15:19.936Z,933.46
2023-01-20T12:16:20.036Z,933.47
2023-01-20T12:17:19.969Z,933.48
2023-01-20T12:18:19.995Z,933.52
2023-01-20T12:19:20.004Z,933.55
2023-01-20T12:20:20.015Z,933.53
2023-01-20T12:21:20.054Z,933.55
2023-01-20T12:22:20.053Z,933.53
2023-01-20T12:23:20.062Z,933.51
2023-01-20T12:24:20.087Z,933.52
2023-01-20T12:25:20.093Z,933.54
2023-01-20T12:26:20.121Z,933.52
2023-01-20T12:27:20.136Z,933.54
2023-01-20T12:28:20.142Z,933.54